sensor_id;sensor_type;location;lat;lon;timestamp;temperature;humidity
6988;DHT22;3534;49.960;8.018;2022-07-17T00:00:20;20.50;75.60
6988;DHT22;3534;49.960;8.018;2022-07-17T00:02:47;20.40;75.80
6988;DHT22;3534;49.960;8.018;2022-07-17T00:05:14;20.30;76.40
6988;DHT22;3534;49.960;8.018;2022-07-17T00:07:41;20.30;76.30
6988;DHT22;3534;49.960;8.018;2022-07-17T00:10:08;20.20;76.30
6988;DHT22;3534;49.960;8.018;2022-07-17T00:12:35;20.20;76.60
6988;DHT22;3534;49.960;8.018;2022-07-17T00:15:03;20.20;77.00
6988;DHT22;3534;49.960;8.018;2022-07-17T00:17:30;20.10;76.90
6988;DHT22;3534;49.960;8.018;2022-07-17T00:19:57;20.10;76.80
6988;DHT22;3534;49.960;8.018;2022-07-17T00:22:24;20.10;77.00
6988;DHT22;3534;49.960;8.018;2022-07-17T00:24:50;19.90;77.20
6988;DHT22;3534;49.960;8.018;2022-07-17T00:27:17;19.80;77.60
6988;DHT22;3534;49.960;8.018;2022-07-17T00:29:44;19.70;77.70
6988;DHT22;3534;49.960;8.018;2022-07-17T00:32:12;19.70;77.80
6988;DHT22;3534;49.960;8.018;2022-07-17T00:34:38;19.60;78.00
6988;DHT22;3534;49.960;8.018;2022-07-17T00:37:05;19.50;78.20
6988;DHT22;3534;49.960;8.018;2022-07-17T00:39:32;19.50;78.70
6988;DHT22;3534;49.960;8.018;2022-07-17T00:41:58;19.40;78.90
6988;DHT22;3534;49.960;8.018;2022-07-17T00:44:26;19.40;79.50
6988;DHT22;3534;49.960;8.018;2022-07-17T00:46:53;19.40;79.80
6988;DHT22;3534;49.960;8.018;2022-07-17T00:49:21;19.30;80.10
6988;DHT22;3534;49.960;8.018;2022-07-17T00:51:48;19.30;80.30
6988;DHT22;3534;49.960;8.018;2022-07-17T00:54:15;19.20;80.30
6988;DHT22;3534;49.960;8.018;2022-07-17T00:56:46;19.20;80.50
6988;DHT22;3534;49.960;8.018;2022-07-17T00:59:15;19.10;80.80
6988;DHT22;3534;49.960;8.018;2022-07-17T01:01:42;19.10;81.10
6988;DHT22;3534;49.960;8.018;2022-07-17T01:04:08;19.00;81.60
6988;DHT22;3534;49.960;8.018;2022-07-17T01:06:37;18.90;82.00
6988;DHT22;3534;49.960;8.018;2022-07-17T01:09:03;18.90;82.30
6988;DHT22;3534;49.960;8.018;2022-07-17T01:11:30;18.90;82.70
6988;DHT22;3534;49.960;8.018;2022-07-17T01:13:57;18.80;82.90
6988;DHT22;3534;49.960;8.018;2022-07-17T01:16:24;18.70;83.10
6988;DHT22;3534;49.960;8.018;2022-07-17T01:18:52;18.70;83.60
6988;DHT22;3534;49.960;8.018;2022-07-17T01:21:20;18.70;83.90
6988;DHT22;3534;49.960;8.018;2022-07-17T01:23:47;18.60;84.20
6988;DHT22;3534;49.960;8.018;2022-07-17T01:26:14;18.60;84.50
6988;DHT22;3534;49.960;8.018;2022-07-17T01:28:40;18.50;85.10
6988;DHT22;3534;49.960;8.018;2022-07-17T01:31:07;18.40;85.80
6988;DHT22;3534;49.960;8.018;2022-07-17T01:33:34;18.40;86.20
6988;DHT22;3534;49.960;8.018;2022-07-17T01:36:00;18.30;86.90
6988;DHT22;3534;49.960;8.018;2022-07-17T01:38:29;18.30;87.20
6988;DHT22;3534;49.960;8.018;2022-07-17T01:40:55;18.30;87.80
6988;DHT22;3534;49.960;8.018;2022-07-17T01:43:22;18.30;88.20
6988;DHT22;3534;49.960;8.018;2022-07-17T01:45:49;18.20;88.50
6988;DHT22;3534;49.960;8.018;2022-07-17T01:48:23;18.20;89.30
6988;DHT22;3534;49.960;8.018;2022-07-17T01:50:50;18.20;89.60
6988;DHT22;3534;49.960;8.018;2022-07-17T01:53:17;18.10;90.10
6988;DHT22;3534;49.960;8.018;2022-07-17T01:55:45;18.10;90.40
6988;DHT22;3534;49.960;8.018;2022-07-17T01:58:12;18.10;90.60
6988;DHT22;3534;49.960;8.018;2022-07-17T02:00:39;18.00;91.20
6988;DHT22;3534;49.960;8.018;2022-07-17T02:03:06;17.90;91.40
6988;DHT22;3534;49.960;8.018;2022-07-17T02:05:33;17.90;91.80
6988;DHT22;3534;49.960;8.018;2022-07-17T02:08:00;17.90;92.10
6988;DHT22;3534;49.960;8.018;2022-07-17T02:10:27;17.80;92.50
6988;DHT22;3534;49.960;8.018;2022-07-17T02:12:55;17.80;93.00
6988;DHT22;3534;49.960;8.018;2022-07-17T02:15:22;17.80;93.40
6988;DHT22;3534;49.960;8.018;2022-07-17T02:17:49;17.80;93.60
6988;DHT22;3534;49.960;8.018;2022-07-17T02:20:16;17.70;94.00
6988;DHT22;3534;49.960;8.018;2022-07-17T02:22:43;17.70;94.50
6988;DHT22;3534;49.960;8.018;2022-07-17T02:25:11;17.60;94.90
6988;DHT22;3534;49.960;8.018;2022-07-17T02:27:39;17.60;95.20
6988;DHT22;3534;49.960;8.018;2022-07-17T02:30:10;17.60;95.60
6988;DHT22;3534;49.960;8.018;2022-07-17T02:32:37;17.60;96.20
6988;DHT22;3534;49.960;8.018;2022-07-17T02:35:05;17.50;96.70
6988;DHT22;3534;49.960;8.018;2022-07-17T02:37:32;17.40;97.20
6988;DHT22;3534;49.960;8.018;2022-07-17T02:39:58;17.40;97.80
6988;DHT22;3534;49.960;8.018;2022-07-17T02:42:27;17.40;98.00
6988;DHT22;3534;49.960;8.018;2022-07-17T02:44:55;17.40;98.00
6988;DHT22;3534;49.960;8.018;2022-07-17T02:47:25;17.40;98.20
6988;DHT22;3534;49.960;8.018;2022-07-17T02:49:52;17.30;99.00
6988;DHT22;3534;49.960;8.018;2022-07-17T02:52:19;17.30;99.60
6988;DHT22;3534;49.960;8.018;2022-07-17T02:54:46;17.20;99.90
6988;DHT22;3534;49.960;8.018;2022-07-17T02:57:13;17.10;99.90
6988;DHT22;3534;49.960;8.018;2022-07-17T02:59:40;17.10;99.90
6988;DHT22;3534;49.960;8.018;2022-07-17T03:02:07;17.00;99.90
6988;DHT22;3534;49.960;8.018;2022-07-17T03:04:35;17.00;99.90
6988;DHT22;3534;49.960;8.018;2022-07-17T03:07:02;17.00;99.90
6988;DHT22;3534;49.960;8.018;2022-07-17T03:09:28;16.90;99.90
6988;DHT22;3534;49.960;8.018;2022-07-17T03:11:55;16.90;99.90
6988;DHT22;3534;49.960;8.018;2022-07-17T03:14:22;16.90;99.90
6988;DHT22;3534;49.960;8.018;2022-07-17T03:16:48;16.80;99.90
6988;DHT22;3534;49.960;8.018;2022-07-17T03:19:15;16.80;99.90
6988;DHT22;3534;49.960;8.018;2022-07-17T03:21:44;16.80;99.90
6988;DHT22;3534;49.960;8.018;2022-07-17T03:24:11;16.80;99.90
6988;DHT22;3534;49.960;8.018;2022-07-17T03:26:41;16.80;99.90
6988;DHT22;3534;49.960;8.018;2022-07-17T03:29:07;16.70;99.90
6988;DHT22;3534;49.960;8.018;2022-07-17T03:31:34;16.70;99.90
6988;DHT22;3534;49.960;8.018;2022-07-17T03:34:01;16.70;99.90
6988;DHT22;3534;49.960;8.018;2022-07-17T03:36:28;16.60;99.90
6988;DHT22;3534;49.960;8.018;2022-07-17T03:38:56;16.60;99.90
6988;DHT22;3534;49.960;8.018;2022-07-17T03:41:23;16.60;99.90
6988;DHT22;3534;49.960;8.018;2022-07-17T03:43:49;16.50;99.90
6988;DHT22;3534;49.960;8.018;2022-07-17T03:46:16;16.50;99.90
6988;DHT22;3534;49.960;8.018;2022-07-17T03:48:43;16.50;99.90
6988;DHT22;3534;49.960;8.018;2022-07-17T03:51:09;16.50;99.90
6988;DHT22;3534;49.960;8.018;2022-07-17T03:53:36;16.50;99.90
6988;DHT22;3534;49.960;8.018;2022-07-17T03:56:04;16.40;99.90
6988;DHT22;3534;49.960;8.018;2022-07-17T03:58:32;16.40;99.90
6988;DHT22;3534;49.960;8.018;2022-07-17T04:00:59;16.40;99.90
6988;DHT22;3534;49.960;8.018;2022-07-17T04:03:25;16.40;99.90
6988;DHT22;3534;49.960;8.018;2022-07-17T04:05:52;16.30;99.90
6988;DHT22;3534;49.960;8.018;2022-07-17T04:08:19;16.30;99.90
6988;DHT22;3534;49.960;8.018;2022-07-17T04:10:46;16.30;99.90
6988;DHT22;3534;49.960;8.018;2022-07-17T04:13:14;16.30;99.90
6988;DHT22;3534;49.960;8.018;2022-07-17T04:15:41;16.20;99.90
6988;DHT22;3534;49.960;8.018;2022-07-17T04:18:21;16.20;99.90
6988;DHT22;3534;49.960;8.018;2022-07-17T04:20:49;16.20;99.90
6988;DHT22;3534;49.960;8.018;2022-07-17T04:23:16;16.10;99.90
6988;DHT22;3534;49.960;8.018;2022-07-17T04:25:43;16.10;99.90
6988;DHT22;3534;49.960;8.018;2022-07-17T04:28:11;16.10;99.90
6988;DHT22;3534;49.960;8.018;2022-07-17T04:30:39;16.10;99.90
6988;DHT22;3534;49.960;8.018;2022-07-17T04:33:06;16.00;99.90
6988;DHT22;3534;49.960;8.018;2022-07-17T04:35:33;16.00;99.90
6988;DHT22;3534;49.960;8.018;2022-07-17T04:38:00;16.10;99.90
6988;DHT22;3534;49.960;8.018;2022-07-17T04:40:27;16.10;99.90
6988;DHT22;3534;49.960;8.018;2022-07-17T04:42:54;16.10;99.90
6988;DHT22;3534;49.960;8.018;2022-07-17T04:45:20;16.10;99.90
6988;DHT22;3534;49.960;8.018;2022-07-17T04:47:48;16.10;99.90
6988;DHT22;3534;49.960;8.018;2022-07-17T04:50:15;16.10;99.90
6988;DHT22;3534;49.960;8.018;2022-07-17T04:52:42;16.20;99.90
6988;DHT22;3534;49.960;8.018;2022-07-17T04:55:09;16.20;99.90
6988;DHT22;3534;49.960;8.018;2022-07-17T04:57:36;16.30;99.90
6988;DHT22;3534;49.960;8.018;2022-07-17T05:00:03;16.30;99.90
6988;DHT22;3534;49.960;8.018;2022-07-17T05:02:30;16.30;99.90
6988;DHT22;3534;49.960;8.018;2022-07-17T05:04:58;16.40;99.90
6988;DHT22;3534;49.960;8.018;2022-07-17T05:07:24;16.50;99.90
6988;DHT22;3534;49.960;8.018;2022-07-17T05:09:51;16.50;99.90
6988;DHT22;3534;49.960;8.018;2022-07-17T05:12:18;16.50;99.90
6988;DHT22;3534;49.960;8.018;2022-07-17T05:14:45;16.60;99.90
6988;DHT22;3534;49.960;8.018;2022-07-17T05:17:12;16.60;99.90
6988;DHT22;3534;49.960;8.018;2022-07-17T05:19:39;16.70;99.90
6988;DHT22;3534;49.960;8.018;2022-07-17T05:22:07;16.70;99.90
6988;DHT22;3534;49.960;8.018;2022-07-17T05:24:33;16.80;99.90
6988;DHT22;3534;49.960;8.018;2022-07-17T05:27:01;16.80;99.90
6988;DHT22;3534;49.960;8.018;2022-07-17T05:29:27;16.90;99.90
6988;DHT22;3534;49.960;8.018;2022-07-17T05:31:54;16.90;99.90
6988;DHT22;3534;49.960;8.018;2022-07-17T05:34:21;17.00;99.90
6988;DHT22;3534;49.960;8.018;2022-07-17T05:36:47;17.10;99.90
6988;DHT22;3534;49.960;8.018;2022-07-17T05:39:16;17.10;99.90
6988;DHT22;3534;49.960;8.018;2022-07-17T05:41:42;17.20;99.90
6988;DHT22;3534;49.960;8.018;2022-07-17T05:44:09;17.10;99.90
6988;DHT22;3534;49.960;8.018;2022-07-17T05:46:35;17.10;99.90
6988;DHT22;3534;49.960;8.018;2022-07-17T05:49:02;17.10;99.90
6988;DHT22;3534;49.960;8.018;2022-07-17T05:51:29;17.10;99.90
6988;DHT22;3534;49.960;8.018;2022-07-17T05:53:55;17.20;99.90
6988;DHT22;3534;49.960;8.018;2022-07-17T05:56:23;17.20;99.90
6988;DHT22;3534;49.960;8.018;2022-07-17T05:58:50;17.30;99.90
6988;DHT22;3534;49.960;8.018;2022-07-17T06:01:17;17.40;99.90
6988;DHT22;3534;49.960;8.018;2022-07-17T06:03:43;17.40;99.90
6988;DHT22;3534;49.960;8.018;2022-07-17T06:06:10;17.50;99.90
6988;DHT22;3534;49.960;8.018;2022-07-17T06:08:36;17.60;99.90
6988;DHT22;3534;49.960;8.018;2022-07-17T06:11:03;17.60;99.90
6988;DHT22;3534;49.960;8.018;2022-07-17T06:13:31;17.70;99.90
6988;DHT22;3534;49.960;8.018;2022-07-17T06:15:58;17.80;99.90
6988;DHT22;3534;49.960;8.018;2022-07-17T06:18:25;17.80;99.90
6988;DHT22;3534;49.960;8.018;2022-07-17T06:20:51;17.90;99.90
6988;DHT22;3534;49.960;8.018;2022-07-17T06:23:18;17.90;99.90
6988;DHT22;3534;49.960;8.018;2022-07-17T06:25:45;18.00;99.90
6988;DHT22;3534;49.960;8.018;2022-07-17T06:28:11;18.10;99.90
6988;DHT22;3534;49.960;8.018;2022-07-17T06:30:39;18.10;99.90
6988;DHT22;3534;49.960;8.018;2022-07-17T06:33:06;18.10;99.90
6988;DHT22;3534;49.960;8.018;2022-07-17T06:35:33;18.20;99.90
6988;DHT22;3534;49.960;8.018;2022-07-17T06:37:59;18.20;99.90
6988;DHT22;3534;49.960;8.018;2022-07-17T06:40:26;18.30;99.90
6988;DHT22;3534;49.960;8.018;2022-07-17T06:42:53;18.40;99.90
6988;DHT22;3534;49.960;8.018;2022-07-17T06:45:19;18.40;99.90
6988;DHT22;3534;49.960;8.018;2022-07-17T06:47:47;18.50;99.90
6988;DHT22;3534;49.960;8.018;2022-07-17T06:50:14;18.60;99.90
6988;DHT22;3534;49.960;8.018;2022-07-17T06:52:41;18.60;99.90
6988;DHT22;3534;49.960;8.018;2022-07-17T06:55:08;18.70;99.90
6988;DHT22;3534;49.960;8.018;2022-07-17T06:57:35;18.80;99.90
6988;DHT22;3534;49.960;8.018;2022-07-17T07:00:02;18.90;99.90
6988;DHT22;3534;49.960;8.018;2022-07-17T07:02:28;19.00;99.90
6988;DHT22;3534;49.960;8.018;2022-07-17T07:04:56;19.10;99.90
6988;DHT22;3534;49.960;8.018;2022-07-17T07:07:23;19.20;99.90
6988;DHT22;3534;49.960;8.018;2022-07-17T07:09:50;19.20;99.90
6988;DHT22;3534;49.960;8.018;2022-07-17T07:12:17;19.30;99.90
6988;DHT22;3534;49.960;8.018;2022-07-17T07:14:43;19.40;99.90
6988;DHT22;3534;49.960;8.018;2022-07-17T07:17:10;19.40;99.90
6988;DHT22;3534;49.960;8.018;2022-07-17T07:19:37;19.50;99.90
6988;DHT22;3534;49.960;8.018;2022-07-17T07:22:05;19.60;99.90
6988;DHT22;3534;49.960;8.018;2022-07-17T07:24:31;19.70;99.90
6988;DHT22;3534;49.960;8.018;2022-07-17T07:26:58;19.80;99.90
6988;DHT22;3534;49.960;8.018;2022-07-17T07:29:25;19.80;99.90
6988;DHT22;3534;49.960;8.018;2022-07-17T07:31:51;19.90;99.90
6988;DHT22;3534;49.960;8.018;2022-07-17T07:34:18;20.00;99.90
6988;DHT22;3534;49.960;8.018;2022-07-17T07:36:45;20.00;99.90
6988;DHT22;3534;49.960;8.018;2022-07-17T07:39:13;20.10;99.90
6988;DHT22;3534;49.960;8.018;2022-07-17T07:41:40;20.20;99.90
6988;DHT22;3534;49.960;8.018;2022-07-17T07:44:07;20.20;99.90
6988;DHT22;3534;49.960;8.018;2022-07-17T07:46:33;20.30;99.90
6988;DHT22;3534;49.960;8.018;2022-07-17T07:49:00;20.40;99.60
6988;DHT22;3534;49.960;8.018;2022-07-17T07:51:27;20.40;99.70
6988;DHT22;3534;49.960;8.018;2022-07-17T07:53:54;20.50;99.90
6988;DHT22;3534;49.960;8.018;2022-07-17T07:56:22;20.60;99.50
6988;DHT22;3534;49.960;8.018;2022-07-17T07:58:48;20.60;99.90
6988;DHT22;3534;49.960;8.018;2022-07-17T08:01:15;20.70;98.60
6988;DHT22;3534;49.960;8.018;2022-07-17T08:03:42;20.80;98.50
6988;DHT22;3534;49.960;8.018;2022-07-17T08:06:08;20.80;98.50
6988;DHT22;3534;49.960;8.018;2022-07-17T08:08:35;20.90;99.90
6988;DHT22;3534;49.960;8.018;2022-07-17T08:11:02;20.90;98.30
6988;DHT22;3534;49.960;8.018;2022-07-17T08:13:30;21.00;98.40
6988;DHT22;3534;49.960;8.018;2022-07-17T08:15:57;21.10;99.90
6988;DHT22;3534;49.960;8.018;2022-07-17T08:18:24;21.20;98.70
6988;DHT22;3534;49.960;8.018;2022-07-17T08:20:51;21.20;97.00
6988;DHT22;3534;49.960;8.018;2022-07-17T08:23:17;21.20;98.70
6988;DHT22;3534;49.960;8.018;2022-07-17T08:25:44;21.30;95.80
6988;DHT22;3534;49.960;8.018;2022-07-17T08:28:13;21.40;97.90
6988;DHT22;3534;49.960;8.018;2022-07-17T08:30:41;21.50;95.50
6988;DHT22;3534;49.960;8.018;2022-07-17T08:33:09;21.50;96.20
6988;DHT22;3534;49.960;8.018;2022-07-17T08:35:36;21.60;94.20
6988;DHT22;3534;49.960;8.018;2022-07-17T08:38:04;21.60;97.60
6988;DHT22;3534;49.960;8.018;2022-07-17T08:40:32;21.70;94.00
6988;DHT22;3534;49.960;8.018;2022-07-17T08:43:01;21.70;96.30
6988;DHT22;3534;49.960;8.018;2022-07-17T08:45:29;21.80;94.80
6988;DHT22;3534;49.960;8.018;2022-07-17T08:47:58;21.80;95.60
6988;DHT22;3534;49.960;8.018;2022-07-17T08:50:28;21.90;91.70
6988;DHT22;3534;49.960;8.018;2022-07-17T08:52:55;21.90;90.90
6988;DHT22;3534;49.960;8.018;2022-07-17T08:55:22;22.00;90.80
6988;DHT22;3534;49.960;8.018;2022-07-17T08:57:49;22.00;92.10
6988;DHT22;3534;49.960;8.018;2022-07-17T09:00:18;22.10;92.60
6988;DHT22;3534;49.960;8.018;2022-07-17T09:02:53;22.10;91.10
6988;DHT22;3534;49.960;8.018;2022-07-17T09:05:23;22.20;90.00
6988;DHT22;3534;49.960;8.018;2022-07-17T09:07:50;22.30;89.10
6988;DHT22;3534;49.960;8.018;2022-07-17T09:10:17;22.30;91.80
6988;DHT22;3534;49.960;8.018;2022-07-17T09:12:44;22.40;87.70
6988;DHT22;3534;49.960;8.018;2022-07-17T09:15:15;22.40;88.20
6988;DHT22;3534;49.960;8.018;2022-07-17T09:17:48;22.50;92.90
6988;DHT22;3534;49.960;8.018;2022-07-17T09:20:14;22.50;92.70
6988;DHT22;3534;49.960;8.018;2022-07-17T09:22:43;22.60;88.20
6988;DHT22;3534;49.960;8.018;2022-07-17T09:25:10;22.70;89.00
6988;DHT22;3534;49.960;8.018;2022-07-17T09:27:37;22.70;88.10
6988;DHT22;3534;49.960;8.018;2022-07-17T09:30:06;22.70;84.50
6988;DHT22;3534;49.960;8.018;2022-07-17T09:32:34;22.80;83.20
6988;DHT22;3534;49.960;8.018;2022-07-17T09:35:03;22.80;84.10
6988;DHT22;3534;49.960;8.018;2022-07-17T09:37:31;22.90;82.20
6988;DHT22;3534;49.960;8.018;2022-07-17T09:40:00;22.90;81.70
6988;DHT22;3534;49.960;8.018;2022-07-17T09:42:28;23.00;81.70
6988;DHT22;3534;49.960;8.018;2022-07-17T09:45:00;23.00;85.00
6988;DHT22;3534;49.960;8.018;2022-07-17T09:47:29;23.00;86.10
6988;DHT22;3534;49.960;8.018;2022-07-17T09:49:58;23.00;83.30
6988;DHT22;3534;49.960;8.018;2022-07-17T09:52:27;23.10;81.20
6988;DHT22;3534;49.960;8.018;2022-07-17T09:54:56;23.10;87.00
6988;DHT22;3534;49.960;8.018;2022-07-17T09:57:26;23.20;80.50
6988;DHT22;3534;49.960;8.018;2022-07-17T09:59:53;23.30;79.40
6988;DHT22;3534;49.960;8.018;2022-07-17T10:02:21;23.30;77.90
6988;DHT22;3534;49.960;8.018;2022-07-17T10:04:48;23.30;80.80
6988;DHT22;3534;49.960;8.018;2022-07-17T10:07:15;23.40;84.90
6988;DHT22;3534;49.960;8.018;2022-07-17T10:09:42;23.40;78.10
6988;DHT22;3534;49.960;8.018;2022-07-17T10:12:09;23.50;77.20
6988;DHT22;3534;49.960;8.018;2022-07-17T10:14:38;23.50;78.40
6988;DHT22;3534;49.960;8.018;2022-07-17T10:17:08;23.60;81.40
6988;DHT22;3534;49.960;8.018;2022-07-17T10:19:44;23.60;78.20
6988;DHT22;3534;49.960;8.018;2022-07-17T10:22:11;23.70;77.10
6988;DHT22;3534;49.960;8.018;2022-07-17T10:24:45;23.80;74.30
6988;DHT22;3534;49.960;8.018;2022-07-17T10:27:18;23.80;74.70
6988;DHT22;3534;49.960;8.018;2022-07-17T10:29:47;23.80;75.60
6988;DHT22;3534;49.960;8.018;2022-07-17T10:32:15;23.90;78.90
6988;DHT22;3534;49.960;8.018;2022-07-17T10:34:45;24.00;73.80
6988;DHT22;3534;49.960;8.018;2022-07-17T10:37:21;24.00;75.50
6988;DHT22;3534;49.960;8.018;2022-07-17T10:39:56;24.00;72.40
6988;DHT22;3534;49.960;8.018;2022-07-17T10:42:40;24.10;71.70
6988;DHT22;3534;49.960;8.018;2022-07-17T10:45:10;24.10;71.90
6988;DHT22;3534;49.960;8.018;2022-07-17T10:47:45;24.10;72.00
6988;DHT22;3534;49.960;8.018;2022-07-17T10:50:12;24.10;71.50
6988;DHT22;3534;49.960;8.018;2022-07-17T10:52:39;24.20;70.20
6988;DHT22;3534;49.960;8.018;2022-07-17T10:55:18;24.20;71.00
6988;DHT22;3534;49.960;8.018;2022-07-17T10:57:45;24.20;71.40
6988;DHT22;3534;49.960;8.018;2022-07-17T11:00:14;24.30;70.90
6988;DHT22;3534;49.960;8.018;2022-07-17T11:02:41;24.40;68.50
6988;DHT22;3534;49.960;8.018;2022-07-17T11:05:08;24.50;66.80
6988;DHT22;3534;49.960;8.018;2022-07-17T11:07:35;24.60;67.30
6988;DHT22;3534;49.960;8.018;2022-07-17T11:10:02;24.60;66.30
6988;DHT22;3534;49.960;8.018;2022-07-17T11:12:32;24.70;66.50
6988;DHT22;3534;49.960;8.018;2022-07-17T11:15:02;24.70;66.10
6988;DHT22;3534;49.960;8.018;2022-07-17T11:17:30;24.80;68.40
6988;DHT22;3534;49.960;8.018;2022-07-17T11:19:58;24.80;64.60
6988;DHT22;3534;49.960;8.018;2022-07-17T11:22:25;24.90;63.60
6988;DHT22;3534;49.960;8.018;2022-07-17T11:24:52;24.90;64.90
6988;DHT22;3534;49.960;8.018;2022-07-17T11:27:20;25.00;64.90
6988;DHT22;3534;49.960;8.018;2022-07-17T11:29:48;25.00;65.90
6988;DHT22;3534;49.960;8.018;2022-07-17T11:32:15;25.10;67.20
6988;DHT22;3534;49.960;8.018;2022-07-17T11:34:43;25.10;67.20
6988;DHT22;3534;49.960;8.018;2022-07-17T11:37:10;25.20;67.00
6988;DHT22;3534;49.960;8.018;2022-07-17T11:39:38;25.20;65.60
6988;DHT22;3534;49.960;8.018;2022-07-17T11:42:07;25.30;66.30
6988;DHT22;3534;49.960;8.018;2022-07-17T11:44:34;25.40;66.00
6988;DHT22;3534;49.960;8.018;2022-07-17T11:47:01;25.50;65.60
6988;DHT22;3534;49.960;8.018;2022-07-17T11:49:30;25.50;73.40
6988;DHT22;3534;49.960;8.018;2022-07-17T11:52:08;25.60;70.40
6988;DHT22;3534;49.960;8.018;2022-07-17T11:54:43;25.60;67.70
6988;DHT22;3534;49.960;8.018;2022-07-17T11:57:10;25.70;73.90
6988;DHT22;3534;49.960;8.018;2022-07-17T11:59:37;25.80;75.30
6988;DHT22;3534;49.960;8.018;2022-07-17T12:02:08;25.80;72.90
6988;DHT22;3534;49.960;8.018;2022-07-17T12:04:35;25.90;68.10
6988;DHT22;3534;49.960;8.018;2022-07-17T12:07:03;26.00;74.20
6988;DHT22;3534;49.960;8.018;2022-07-17T12:09:33;26.00;73.50
6988;DHT22;3534;49.960;8.018;2022-07-17T12:12:00;26.10;65.90
6988;DHT22;3534;49.960;8.018;2022-07-17T12:14:27;26.10;64.30
6988;DHT22;3534;49.960;8.018;2022-07-17T12:16:56;26.10;65.30
6988;DHT22;3534;49.960;8.018;2022-07-17T12:19:24;26.10;64.80
6988;DHT22;3534;49.960;8.018;2022-07-17T12:21:53;26.30;65.20
6988;DHT22;3534;49.960;8.018;2022-07-17T12:24:27;26.30;64.30
6988;DHT22;3534;49.960;8.018;2022-07-17T12:26:55;26.40;64.70
6988;DHT22;3534;49.960;8.018;2022-07-17T12:29:23;26.40;64.70
6988;DHT22;3534;49.960;8.018;2022-07-17T12:32:03;26.50;64.10
6988;DHT22;3534;49.960;8.018;2022-07-17T12:34:30;26.60;64.20
6988;DHT22;3534;49.960;8.018;2022-07-17T12:36:57;26.70;63.70
6988;DHT22;3534;49.960;8.018;2022-07-17T12:39:25;26.80;65.10
6988;DHT22;3534;49.960;8.018;2022-07-17T12:41:52;26.90;63.70
6988;DHT22;3534;49.960;8.018;2022-07-17T12:44:19;27.20;61.70
6988;DHT22;3534;49.960;8.018;2022-07-17T12:46:45;27.40;61.20
6988;DHT22;3534;49.960;8.018;2022-07-17T12:49:12;27.50;62.40
6988;DHT22;3534;49.960;8.018;2022-07-17T12:51:39;27.70;61.90
6988;DHT22;3534;49.960;8.018;2022-07-17T12:54:05;28.00;59.90
6988;DHT22;3534;49.960;8.018;2022-07-17T12:56:33;28.10;60.40
6988;DHT22;3534;49.960;8.018;2022-07-17T12:59:00;28.30;65.10
6988;DHT22;3534;49.960;8.018;2022-07-17T13:01:27;28.50;62.20
6988;DHT22;3534;49.960;8.018;2022-07-17T13:03:53;28.70;59.40
6988;DHT22;3534;49.960;8.018;2022-07-17T13:06:20;28.80;65.60
6988;DHT22;3534;49.960;8.018;2022-07-17T13:08:47;29.00;65.00
6988;DHT22;3534;49.960;8.018;2022-07-17T13:11:14;29.30;62.30
6988;DHT22;3534;49.960;8.018;2022-07-17T13:13:42;29.60;61.00
6988;DHT22;3534;49.960;8.018;2022-07-17T13:16:09;30.00;64.60
6988;DHT22;3534;49.960;8.018;2022-07-17T13:18:37;30.40;61.40
6988;DHT22;3534;49.960;8.018;2022-07-17T13:21:05;30.90;58.50
6988;DHT22;3534;49.960;8.018;2022-07-17T13:23:32;31.30;61.20
6988;DHT22;3534;49.960;8.018;2022-07-17T13:26:00;31.90;54.60
6988;DHT22;3534;49.960;8.018;2022-07-17T13:28:27;32.50;51.90
6988;DHT22;3534;49.960;8.018;2022-07-17T13:30:55;32.80;60.40
6988;DHT22;3534;49.960;8.018;2022-07-17T13:33:22;33.00;60.00
6988;DHT22;3534;49.960;8.018;2022-07-17T13:35:48;33.40;62.00
6988;DHT22;3534;49.960;8.018;2022-07-17T13:38:15;33.80;61.20
6988;DHT22;3534;49.960;8.018;2022-07-17T13:40:42;34.00;56.00
6988;DHT22;3534;49.960;8.018;2022-07-17T13:43:09;34.30;49.00
6988;DHT22;3534;49.960;8.018;2022-07-17T13:45:36;34.80;46.70
6988;DHT22;3534;49.960;8.018;2022-07-17T13:48:05;35.30;44.30
6988;DHT22;3534;49.960;8.018;2022-07-17T13:50:31;35.60;44.20
6988;DHT22;3534;49.960;8.018;2022-07-17T13:53:00;36.10;43.30
6988;DHT22;3534;49.960;8.018;2022-07-17T13:55:27;36.50;45.20
6988;DHT22;3534;49.960;8.018;2022-07-17T13:57:53;36.90;43.30
6988;DHT22;3534;49.960;8.018;2022-07-17T14:00:20;37.10;43.50
6988;DHT22;3534;49.960;8.018;2022-07-17T14:02:47;37.10;43.30
6988;DHT22;3534;49.960;8.018;2022-07-17T14:05:25;37.40;43.00
6988;DHT22;3534;49.960;8.018;2022-07-17T14:07:51;37.70;43.30
6988;DHT22;3534;49.960;8.018;2022-07-17T14:10:18;37.70;40.20
6988;DHT22;3534;49.960;8.018;2022-07-17T14:12:45;37.80;40.80
6988;DHT22;3534;49.960;8.018;2022-07-17T14:15:11;38.10;41.30
6988;DHT22;3534;49.960;8.018;2022-07-17T14:17:38;38.30;42.00
6988;DHT22;3534;49.960;8.018;2022-07-17T14:20:05;38.50;39.20
6988;DHT22;3534;49.960;8.018;2022-07-17T14:22:33;39.00;39.10
6988;DHT22;3534;49.960;8.018;2022-07-17T14:25:00;39.30;37.90
6988;DHT22;3534;49.960;8.018;2022-07-17T14:27:27;39.00;37.30
6988;DHT22;3534;49.960;8.018;2022-07-17T14:29:54;39.10;37.20
6988;DHT22;3534;49.960;8.018;2022-07-17T14:32:20;39.30;41.40
6988;DHT22;3534;49.960;8.018;2022-07-17T14:34:47;39.60;37.80
6988;DHT22;3534;49.960;8.018;2022-07-17T14:37:16;39.80;45.10
6988;DHT22;3534;49.960;8.018;2022-07-17T14:39:44;39.90;42.80
6988;DHT22;3534;49.960;8.018;2022-07-17T14:42:11;40.20;35.60
6988;DHT22;3534;49.960;8.018;2022-07-17T14:44:37;40.50;41.90
6988;DHT22;3534;49.960;8.018;2022-07-17T14:47:04;40.40;41.40
6988;DHT22;3534;49.960;8.018;2022-07-17T14:49:33;40.60;39.60
6988;DHT22;3534;49.960;8.018;2022-07-17T14:51:59;40.50;33.80
6988;DHT22;3534;49.960;8.018;2022-07-17T14:54:26;40.20;33.70
6988;DHT22;3534;49.960;8.018;2022-07-17T14:56:55;39.70;43.20
6988;DHT22;3534;49.960;8.018;2022-07-17T14:59:21;39.70;34.50
6988;DHT22;3534;49.960;8.018;2022-07-17T15:01:48;39.50;33.70
6988;DHT22;3534;49.960;8.018;2022-07-17T15:04:15;38.80;33.40
6988;DHT22;3534;49.960;8.018;2022-07-17T15:06:41;38.50;34.80
6988;DHT22;3534;49.960;8.018;2022-07-17T15:09:08;38.10;38.50
6988;DHT22;3534;49.960;8.018;2022-07-17T15:11:36;38.40;39.90
6988;DHT22;3534;49.960;8.018;2022-07-17T15:14:04;38.70;33.80
6988;DHT22;3534;49.960;8.018;2022-07-17T15:16:31;39.20;34.20
6988;DHT22;3534;49.960;8.018;2022-07-17T15:18:58;39.20;33.90
6988;DHT22;3534;49.960;8.018;2022-07-17T15:21:24;39.60;42.00
6988;DHT22;3534;49.960;8.018;2022-07-17T15:23:51;39.90;39.70
6988;DHT22;3534;49.960;8.018;2022-07-17T15:26:18;40.20;37.50
6988;DHT22;3534;49.960;8.018;2022-07-17T15:28:44;40.40;34.50
6988;DHT22;3534;49.960;8.018;2022-07-17T15:31:12;40.50;31.20
6988;DHT22;3534;49.960;8.018;2022-07-17T15:33:39;40.60;39.10
6988;DHT22;3534;49.960;8.018;2022-07-17T15:36:08;40.80;34.40
6988;DHT22;3534;49.960;8.018;2022-07-17T15:38:35;41.10;32.80
6988;DHT22;3534;49.960;8.018;2022-07-17T15:41:01;41.00;33.70
6988;DHT22;3534;49.960;8.018;2022-07-17T15:43:28;41.30;36.00
6988;DHT22;3534;49.960;8.018;2022-07-17T15:45:55;41.60;30.00
6988;DHT22;3534;49.960;8.018;2022-07-17T15:48:23;41.60;31.40
6988;DHT22;3534;49.960;8.018;2022-07-17T15:50:50;41.10;29.80
6988;DHT22;3534;49.960;8.018;2022-07-17T15:53:16;41.10;32.30
6988;DHT22;3534;49.960;8.018;2022-07-17T15:55:43;41.20;31.30
6988;DHT22;3534;49.960;8.018;2022-07-17T15:58:09;41.20;36.90
6988;DHT22;3534;49.960;8.018;2022-07-17T16:00:36;41.20;34.70
6988;DHT22;3534;49.960;8.018;2022-07-17T16:03:03;41.30;30.20